Forside
METAR-TAF:

METAR-TAF

Lufthavne :

Uluru, Australien

Breddekreds: 25-11-10S, længdekreds: 130-58-32E, højde: 496 m

Aktuelle vejr

Denne rapport blev lavet for 52 minutter siden, kl. 00:00 UTC
Vind 13 kt fra østsydøst
Temperatur 21°C
Fugtighed 35%
Tryk 1021 hPa
Sigt 10 km eller mere

METAR: YAYE 200000Z AUTO 11013KT 9999 // NCD 21/05 Q1021

Tid: 10:22 (00:52 UTC)


TAF: fraværende

Vejrobservationer og prognoser fra mere end 4000 lufthavne (METAR og TAF).

De gule og røde prikker repræsenterer de meteorologiske stationer.

Flyt musen over at se navnet på stationen.

Så klik over at se vejr observationer og prognoser.

At skifte det kort: Klik på de grønne knapper med et sort kors for at zoome ind; på den grønne knap med en bindestreg for at zoome ud; eller på de grønne pile for tilstødende kort.


METAR-TAF: